Time;durP1;ratioP1;P1;durP2;ratioP2;P2;SDS_P1;SDS_P2;PMS_P1;PMS_P2;Temp;Humidity;BMP_temperature;BMP_pressure;BME280_temperature;BME280_humidity;BME280_pressure;Samples;Min_cycle;Max_cycle;Signal;HPM_P1;HPM_P2
2023/09/07 00:00:17;;;;;;;14.27;7.60;;;25.30;53.10;;;;;;5094974;28;20031;-76
2023/09/07 00:02:43;;;;;;;12.27;7.35;;;25.30;53.30;;;;;;5113185;28;20116;-75
2023/09/07 00:05:09;;;;;;;12.23;7.50;;;25.30;53.10;;;;;;5114799;22;20071;-75
2023/09/07 00:07:35;;;;;;;10.45;7.22;;;25.30;53.40;;;;;;5072576;28;20044;-76
2023/09/07 00:10:02;;;;;;;10.73;6.82;;;25.30;52.90;;;;;;5072643;28;20029;-75
2023/09/07 00:12:27;;;;;;;12.02;7.05;;;25.30;53.40;;;;;;5054422;28;20068;-76
2023/09/07 00:14:57;;;;;;;11.23;7.20;;;25.30;53.20;;;;;;5072804;28;20041;-75
2023/09/07 00:17:23;;;;;;;12.55;6.82;;;25.30;53.40;;;;;;5054846;28;20036;-74
2023/09/07 00:19:50;;;;;;;9.75;6.72;;;25.20;53.20;;;;;;5072791;28;20037;-75
2023/09/07 00:22:16;;;;;;;14.32;7.15;;;25.20;53.50;;;;;;5072368;28;20113;-75
2023/09/07 00:24:42;;;;;;;11.13;7.57;;;25.20;53.20;;;;;;5072567;28;20025;-74
2023/09/07 00:27:08;;;;;;;11.88;7.55;;;25.10;53.50;;;;;;5074978;28;20043;-74
2023/09/07 00:29:37;;;;;;;11.18;7.95;;;25.10;53.70;;;;;;5090027;28;20495;-76
2023/09/07 00:32:03;;;;;;;11.13;7.20;;;25.10;53.90;;;;;;5092398;28;20032;-74
2023/09/07 00:34:29;;;;;;;12.27;8.00;;;25.10;54.00;;;;;;5073381;28;20127;-75
2023/09/07 00:36:54;;;;;;;11.23;7.63;;;25.10;54.00;;;;;;5071527;28;20488;-75
2023/09/07 00:39:20;;;;;;;12.70;7.82;;;25.00;54.00;;;;;;5053621;28;20037;-74
2023/09/07 00:41:46;;;;;;;11.35;7.70;;;25.00;53.90;;;;;;5072663;28;20043;-75
2023/09/07 00:44:11;;;;;;;11.43;7.72;;;25.00;54.40;;;;;;5072291;28;20123;-75
2023/09/07 00:46:37;;;;;;;14.05;6.57;;;24.90;54.10;;;;;;5072092;28;20091;-74
2023/09/07 00:49:04;;;;;;;11.18;7.53;;;24.80;54.40;;;;;;5072120;28;20025;-74
2023/09/07 00:51:30;;;;;;;10.27;7.05;;;24.80;54.40;;;;;;5067047;28;20040;-74
2023/09/07 00:53:57;;;;;;;10.25;7.70;;;24.80;54.30;;;;;;5092598;28;20551;-74
2023/09/07 00:56:24;;;;;;;11.00;7.75;;;24.80;54.50;;;;;;5092180;28;20391;-76
2023/09/07 00:58:51;;;;;;;9.48;7.05;;;24.70;54.00;;;;;;5092072;28;20111;-74
2023/09/07 01:01:16;;;;;;;12.20;7.32;;;24.70;54.20;;;;;;5091972;28;20413;-74
2023/09/07 01:03:42;;;;;;;8.55;6.40;;;24.70;54.00;;;;;;5092165;28;20025;-74
2023/09/07 01:06:17;;;;;;;15.40;7.00;;;24.60;54.00;;;;;;5091957;28;20063;-75
2023/09/07 01:08:48;;;;;;;11.45;6.43;;;24.60;54.00;;;;;;5092255;28;20479;-75
2023/09/07 01:11:22;;;;;;;8.15;6.28;;;24.60;54.20;;;;;;5091233;28;20158;-73
2023/09/07 01:13:49;;;;;;;14.02;7.15;;;24.60;54.60;;;;;;5085487;28;20035;-74
2023/09/07 01:16:15;;;;;;;8.73;6.63;;;24.60;53.70;;;;;;5095182;28;20340;-74
2023/09/07 01:18:41;;;;;;;9.98;6.60;;;24.50;53.70;;;;;;5095941;28;20028;-75
2023/09/07 01:21:09;;;;;;;8.40;6.40;;;24.50;54.30;;;;;;5076685;28;20040;-75
2023/09/07 01:23:46;;;;;;;9.88;6.47;;;24.50;53.90;;;;;;5091733;28;20086;-74
2023/09/07 01:26:12;;;;;;;8.00;6.05;;;24.40;53.80;;;;;;5089151;28;20103;-75
2023/09/07 01:28:38;;;;;;;9.25;6.15;;;24.50;53.60;;;;;;5071573;28;20107;-74
2023/09/07 01:31:04;;;;;;;8.45;6.43;;;24.50;53.70;;;;;;5071431;28;20469;-75
2023/09/07 01:33:30;;;;;;;7.88;6.03;;;24.50;53.30;;;;;;5071431;28;20036;-74
2023/09/07 01:35:56;;;;;;;7.70;5.82;;;24.50;53.50;;;;;;5071080;28;20055;-76
2023/09/07 01:38:22;;;;;;;9.25;6.40;;;24.50;53.40;;;;;;5071291;28;20041;-74
2023/09/07 01:40:47;;;;;;;9.15;5.50;;;24.50;53.90;;;;;;5053294;28;20037;-74
2023/09/07 01:43:13;;;;;;;9.27;6.03;;;24.50;53.40;;;;;;5071656;28;20037;-75
2023/09/07 01:45:39;;;;;;;9.00;6.13;;;24.50;53.30;;;;;;5071553;28;20064;-74
2023/09/07 01:48:12;;;;;;;7.88;6.15;;;24.50;53.50;;;;;;5071544;28;20111;-75
2023/09/07 01:50:38;;;;;;;8.60;6.07;;;24.50;53.40;;;;;;5074889;28;20033;-75
2023/09/07 01:53:04;;;;;;;8.75;6.60;;;24.50;53.60;;;;;;5075011;28;20078;-74
2023/09/07 01:55:31;;;;;;;10.57;6.65;;;24.50;53.50;;;;;;5057678;28;20082;-74
2023/09/07 01:57:57;;;;;;;6.75;5.47;;;24.50;53.20;;;;;;5075223;28;20028;-75
2023/09/07 02:00:22;;;;;;;7.85;5.57;;;24.50;53.40;;;;;;5074921;28;20040;-74
2023/09/07 02:02:48;;;;;;;9.25;6.50;;;24.50;53.30;;;;;;5074881;28;20036;-75
2023/09/07 02:05:14;;;;;;;8.43;5.70;;;24.50;53.20;;;;;;5074790;28;20176;-73
2023/09/07 02:07:39;;;;;;;9.45;5.88;;;24.50;53.40;;;;;;5074598;28;20055;-75
2023/09/07 02:10:06;;;;;;;9.85;5.53;;;24.40;53.20;;;;;;5074516;28;20029;-73
2023/09/07 02:12:31;;;;;;;8.10;5.47;;;24.30;53.20;;;;;;5074786;28;20456;-75
2023/09/07 02:15:01;;;;;;;8.20;5.82;;;24.30;53.10;;;;;;5074905;28;20090;-73
2023/09/07 02:17:26;;;;;;;6.72;5.30;;;24.30;53.20;;;;;;5074982;28;20060;-74
2023/09/07 02:19:52;;;;;;;9.52;5.78;;;24.30;53.10;;;;;;5074767;28;20063;-74
2023/09/07 02:22:18;;;;;;;9.63;5.78;;;24.30;53.80;;;;;;5074528;28;20048;-75
2023/09/07 02:24:43;;;;;;;9.77;5.13;;;24.20;53.10;;;;;;5056558;28;20028;-74
2023/09/07 02:27:09;;;;;;;9.35;5.50;;;24.20;53.10;;;;;;5074472;28;20067;-74
2023/09/07 02:29:35;;;;;;;7.28;5.47;;;24.20;53.80;;;;;;5074386;28;20391;-74
2023/09/07 02:32:00;;;;;;;9.07;5.50;;;24.20;53.80;;;;;;5086342;28;20028;-74
2023/09/07 02:34:26;;;;;;;10.30;5.05;;;24.20;53.70;;;;;;5094655;28;20495;-75
2023/09/07 02:36:52;;;;;;;8.48;5.32;;;24.20;53.80;;;;;;5074478;28;20119;-75
2023/09/07 02:39:18;;;;;;;7.63;5.15;;;24.20;53.60;;;;;;5074215;28;20033;-73
2023/09/07 02:41:45;;;;;;;6.50;4.80;;;24.20;53.60;;;;;;5074087;28;20491;-75
2023/09/07 02:44:11;;;;;;;7.55;4.88;;;24.20;53.60;;;;;;5084695;28;20036;-74
2023/09/07 02:46:36;;;;;;;10.82;5.20;;;24.10;53.60;;;;;;5094290;28;20499;-75
2023/09/07 02:49:03;;;;;;;7.70;4.60;;;24.20;53.50;;;;;;5094272;28;20178;-75
2023/09/07 02:51:28;;;;;;;6.82;5.05;;;24.20;53.40;;;;;;5094196;28;20028;-73
2023/09/07 02:53:56;;;;;;;7.32;4.93;;;24.10;53.20;;;;;;5094412;28;20040;-75
2023/09/07 02:56:21;;;;;;;7.53;4.75;;;24.10;53.40;;;;;;5094184;28;20036;-74
2023/09/07 02:58:48;;;;;;;8.50;5.35;;;24.10;53.20;;;;;;5093923;28;20107;-74
2023/09/07 03:01:13;;;;;;;6.07;4.93;;;24.10;53.50;;;;;;5093177;28;20047;-74
2023/09/07 03:03:41;;;;;;;6.93;4.72;;;24.00;53.40;;;;;;5093877;28;20036;-74
2023/09/07 03:06:14;;;;;;;8.20;5.25;;;24.00;53.50;;;;;;5093834;28;20052;-74
2023/09/07 03:08:40;;;;;;;7.20;4.90;;;24.10;53.60;;;;;;5087068;28;20047;-75
2023/09/07 03:11:08;;;;;;;9.05;5.35;;;24.00;53.50;;;;;;5073540;28;20037;-74
2023/09/07 03:13:34;;;;;;;9.82;4.93;;;24.00;53.60;;;;;;5073622;28;20128;-73
2023/09/07 03:16:00;;;;;;;10.68;5.07;;;24.00;53.50;;;;;;5073849;28;20032;-75
2023/09/07 03:18:26;;;;;;;7.80;5.00;;;24.00;53.70;;;;;;5073391;28;20044;-74
2023/09/07 03:20:58;;;;;;;6.32;4.68;;;24.00;54.20;;;;;;5088366;28;20096;-75
2023/09/07 03:23:24;;;;;;;6.72;4.63;;;23.90;53.70;;;;;;5084538;28;20037;-75
2023/09/07 03:25:49;;;;;;;11.43;5.40;;;23.90;53.90;;;;;;5074439;28;20054;-75
2023/09/07 03:28:15;;;;;;;10.23;4.97;;;23.90;53.80;;;;;;5054989;28;20028;-74
2023/09/07 03:30:41;;;;;;;7.63;4.45;;;23.90;53.90;;;;;;5073168;28;20045;-75
2023/09/07 03:33:07;;;;;;;7.30;4.40;;;23.90;53.80;;;;;;5073037;28;20131;-74
2023/09/07 03:35:33;;;;;;;8.02;4.50;;;23.80;53.80;;;;;;5072964;28;20039;-74
2023/09/07 03:37:59;;;;;;;5.90;4.15;;;23.80;53.80;;;;;;5072998;28;20024;-74
2023/09/07 03:40:25;;;;;;;10.23;4.60;;;23.90;54.00;;;;;;5072720;28;20032;-73
2023/09/07 03:42:50;;;;;;;9.18;4.80;;;23.80;53.80;;;;;;5072918;28;20033;-75
2023/09/07 03:45:16;;;;;;;10.52;5.18;;;23.80;53.90;;;;;;5072965;28;20390;-75
2023/09/07 03:47:42;;;;;;;9.35;5.05;;;23.80;53.90;;;;;;5074520;28;20398;-75
2023/09/07 03:50:08;;;;;;;7.57;4.53;;;23.70;54.10;;;;;;5066946;28;20036;-75
2023/09/07 03:52:34;;;;;;;9.88;4.68;;;23.70;54.00;;;;;;5092960;28;20431;-74
2023/09/07 03:55:01;;;;;;;9.00;4.53;;;23.70;54.10;;;;;;5063630;28;20056;-74
2023/09/07 03:57:27;;;;;;;6.03;4.40;;;23.60;54.20;;;;;;5072635;28;20383;-74
2023/09/07 03:59:55;;;;;;;12.43;4.28;;;23.60;54.00;;;;;;5072423;28;20138;-75
2023/09/07 04:02:21;;;;;;;8.30;4.50;;;23.50;54.10;;;;;;5072399;28;20099;-75
2023/09/07 04:04:51;;;;;;;8.02;4.50;;;23.40;54.30;;;;;;5054472;28;20032;-74
2023/09/07 04:07:17;;;;;;;7.63;4.90;;;23.40;54.60;;;;;;5071984;28;20496;-74
2023/09/07 04:09:44;;;;;;;8.20;4.70;;;23.40;54.60;;;;;;5071383;28;20131;-74
2023/09/07 04:12:10;;;;;;;7.43;4.72;;;23.50;54.50;;;;;;5092594;28;20448;-74
2023/09/07 04:14:36;;;;;;;7.57;4.35;;;23.40;54.50;;;;;;5092178;28;20042;-75
2023/09/07 04:17:02;;;;;;;8.27;4.50;;;23.40;54.50;;;;;;5092532;28;20103;-75
2023/09/07 04:19:28;;;;;;;6.20;4.70;;;23.40;54.60;;;;;;5092512;28;20115;-75
2023/09/07 04:21:54;;;;;;;7.85;4.88;;;23.30;54.60;;;;;;5091995;28;20040;-74
2023/09/07 04:24:19;;;;;;;9.55;4.75;;;23.40;54.80;;;;;;5080932;28;20032;-74
2023/09/07 04:26:45;;;;;;;8.18;4.63;;;23.30;55.00;;;;;;5067208;28;20071;-74
2023/09/07 04:29:12;;;;;;;6.55;4.68;;;23.30;55.10;;;;;;5092359;28;20438;-74
2023/09/07 04:31:38;;;;;;;11.05;4.70;;;23.30;55.10;;;;;;5088041;28;20028;-73
2023/09/07 04:34:04;;;;;;;6.72;4.60;;;23.20;55.00;;;;;;5074185;28;20487;-75
2023/09/07 04:36:30;;;;;;;6.35;4.25;;;23.10;55.40;;;;;;5072143;28;20118;-74
2023/09/07 04:38:56;;;;;;;8.73;4.68;;;23.10;55.50;;;;;;5072269;28;20060;-74
2023/09/07 04:41:21;;;;;;;7.70;4.40;;;23.10;55.60;;;;;;5071790;28;20049;-76
2023/09/07 04:43:47;;;;;;;8.52;4.68;;;23.10;55.50;;;;;;5071849;28;20028;-74
2023/09/07 04:46:14;;;;;;;6.38;4.32;;;23.10;55.60;;;;;;5071872;28;20063;-74
2023/09/07 04:48:41;;;;;;;7.50;4.68;;;23.20;55.50;;;;;;5072000;28;20441;-74
2023/09/07 04:51:08;;;;;;;7.70;4.55;;;23.10;55.70;;;;;;5072318;28;20064;-75
2023/09/07 04:53:35;;;;;;;7.13;4.50;;;23.10;55.60;;;;;;5071511;28;20047;-74
2023/09/07 04:56:03;;;;;;;9.18;4.65;;;23.00;56.30;;;;;;5071677;28;20048;-74
2023/09/07 04:58:29;;;;;;;7.55;4.60;;;23.10;55.90;;;;;;5071705;28;20033;-74
2023/09/07 05:01:01;;;;;;;9.30;5.25;;;23.10;55.70;;;;;;5071475;28;20043;-75
2023/09/07 05:03:26;;;;;;;5.88;4.40;;;23.10;55.80;;;;;;5071629;28;20043;-74
2023/09/07 05:05:53;;;;;;;8.48;4.70;;;23.10;55.80;;;;;;5071661;28;20040;-74
2023/09/07 05:08:18;;;;;;;11.75;4.95;;;23.10;55.90;;;;;;5071356;28;20037;-75
2023/09/07 05:10:44;;;;;;;9.35;4.97;;;23.10;55.60;;;;;;5053633;28;20041;-74
2023/09/07 05:13:10;;;;;;;8.32;4.70;;;23.10;55.90;;;;;;5053728;28;20410;-75
2023/09/07 05:15:35;;;;;;;10.70;4.90;;;23.10;55.90;;;;;;5071285;28;20032;-75
2023/09/07 05:18:01;;;;;;;7.68;4.65;;;23.10;56.00;;;;;;5071951;28;20376;-75
2023/09/07 05:20:30;;;;;;;7.53;4.50;;;23.10;56.20;;;;;;5053626;28;20032;-75
2023/09/07 05:22:56;;;;;;;7.35;4.68;;;23.00;56.30;;;;;;5075066;28;20498;-74
2023/09/07 05:25:22;;;;;;;7.28;4.50;;;23.00;56.20;;;;;;5078566;28;20071;-75
2023/09/07 05:27:48;;;;;;;8.25;4.70;;;22.90;56.30;;;;;;5075464;28;20084;-75
2023/09/07 05:30:14;;;;;;;11.43;4.90;;;22.90;56.60;;;;;;5075237;28;20472;-75
2023/09/07 05:32:41;;;;;;;7.60;4.40;;;22.90;56.40;;;;;;5074821;28;20090;-74
2023/09/07 05:35:07;;;;;;;10.88;5.22;;;22.90;56.50;;;;;;5075039;28;20079;-74
2023/09/07 05:37:33;;;;;;;7.82;4.88;;;23.00;56.40;;;;;;5075445;28;20530;-74
2023/09/07 05:39:59;;;;;;;9.63;4.15;;;23.00;57.00;;;;;;5057014;28;20193;-74
2023/09/07 05:42:25;;;;;;;8.73;4.50;;;23.10;56.20;;;;;;5075222;28;20402;-75
2023/09/07 05:44:51;;;;;;;10.80;4.43;;;23.20;56.20;;;;;;5075247;28;20041;-75
2023/09/07 05:47:17;;;;;;;9.50;4.93;;;23.30;56.00;;;;;;5075057;28;20033;-75
2023/09/07 05:49:43;;;;;;;11.25;5.30;;;23.40;55.80;;;;;;5075033;28;20037;-74
2023/09/07 05:52:09;;;;;;;15.70;5.10;;;23.60;55.60;;;;;;5080416;28;20044;-74
2023/09/07 05:54:34;;;;;;;10.10;4.63;;;23.90;55.50;;;;;;5091030;28;20089;-75
2023/09/07 05:57:00;;;;;;;12.68;4.93;;;24.00;54.70;;;;;;5088730;28;20043;-76
2023/09/07 05:59:26;;;;;;;7.68;4.38;;;24.40;54.70;;;;;;5095170;28;20039;-75
2023/09/07 06:01:52;;;;;;;6.38;4.30;;;24.60;54.10;;;;;;5077270;28;20123;-75
2023/09/07 06:04:17;;;;;;;7.72;4.28;;;24.90;53.90;;;;;;5074704;28;20051;-75
2023/09/07 06:06:43;;;;;;;9.73;4.40;;;25.10;53.30;;;;;;5074784;28;20048;-73
2023/09/07 06:09:09;;;;;;;9.85;4.80;;;25.30;52.80;;;;;;5092982;28;20036;-73
2023/09/07 06:11:35;;;;;;;9.10;4.35;;;25.60;52.30;;;;;;5094657;28;20089;-74
2023/09/07 06:14:00;;;;;;;11.35;4.53;;;25.60;52.20;;;;;;5094270;28;20043;-74
2023/09/07 06:16:26;;;;;;;7.20;4.35;;;25.90;52.10;;;;;;5094784;28;20032;-75
2023/09/07 06:18:52;;;;;;;11.13;4.45;;;26.10;51.40;;;;;;5096641;28;20028;-75
2023/09/07 06:21:17;;;;;;;8.18;4.10;;;26.30;51.30;;;;;;5076236;28;20492;-75
2023/09/07 06:23:43;;;;;;;9.68;4.07;;;26.50;50.70;;;;;;5067945;28;20112;-74
2023/09/07 06:26:09;;;;;;;11.60;3.85;;;26.60;50.60;;;;;;5074869;28;20033;-78
2023/09/07 06:28:35;;;;;;;5.60;4.00;;;26.80;50.60;;;;;;5083859;28;20522;-75
2023/09/07 06:31:00;;;;;;;12.10;4.28;;;26.80;50.20;;;;;;5094372;28;20119;-78
2023/09/07 06:33:26;;;;;;;10.40;3.50;;;26.80;50.40;;;;;;5094308;28;20086;-76
2023/09/07 06:35:52;;;;;;;9.85;3.60;;;26.90;50.30;;;;;;5094653;28;20071;-77
2023/09/07 06:38:18;;;;;;;6.13;3.90;;;27.00;49.90;;;;;;5094495;28;20082;-81
2023/09/07 06:40:50;;;;;;;6.82;4.30;;;27.20;49.70;;;;;;5094890;28;20040;-80
2023/09/07 06:43:15;;;;;;;6.10;3.70;;;27.30;49.40;;;;;;5094472;28;20037;-79
2023/09/07 06:45:41;;;;;;;7.32;3.60;;;27.40;49.50;;;;;;5094681;28;20028;-80
2023/09/07 06:48:07;;;;;;;11.07;4.05;;;27.60;49.20;;;;;;5094806;28;20090;-79
2023/09/07 06:50:33;;;;;;;7.10;3.88;;;27.70;49.10;;;;;;5094896;28;20031;-81
2023/09/07 06:52:58;;;;;;;11.50;4.05;;;27.70;48.80;;;;;;5094457;28;20032;-80
2023/09/07 06:55:24;;;;;;;10.00;4.15;;;27.70;48.70;;;;;;5094709;28;20518;-82
2023/09/07 06:57:50;;;;;;;14.32;4.90;;;27.80;48.90;;;;;;5094378;28;20123;-82
2023/09/07 07:00:15;;;;;;;10.55;3.90;;;27.90;48.70;;;;;;5094336;28;20396;-80
2023/09/07 07:02:41;;;;;;;9.25;4.72;;;28.00;48.50;;;;;;5094148;28;20174;-81
2023/09/07 07:05:08;;;;;;;8.07;3.90;;;28.20;48.60;;;;;;5075541;28;20350;-78
2023/09/07 07:07:34;;;;;;;7.97;3.85;;;28.20;48.10;;;;;;5075144;28;20032;-80
2023/09/07 07:10:00;;;;;;;8.85;3.53;;;28.00;48.20;;;;;;5074102;28;20087;-81
2023/09/07 07:12:26;;;;;;;9.20;4.20;;;28.10;48.20;;;;;;5074025;28;20450;-82
2023/09/07 07:14:52;;;;;;;7.72;3.88;;;28.00;48.40;;;;;;5074043;28;20035;-79
2023/09/07 07:17:18;;;;;;;13.70;5.28;;;28.00;48.40;;;;;;5074229;28;20112;-80
2023/09/07 07:19:43;;;;;;;12.23;4.25;;;28.00;48.40;;;;;;5077147;28;20125;-82
2023/09/07 07:22:09;;;;;;;7.88;4.45;;;27.90;48.30;;;;;;5104663;28;20103;-79
2023/09/07 07:24:35;;;;;;;13.73;4.57;;;27.90;48.50;;;;;;5108966;28;20036;-81
2023/09/07 07:27:00;;;;;;;17.00;5.72;;;27.90;48.40;;;;;;5104389;28;20028;-81
2023/09/07 07:29:26;;;;;;;9.75;4.05;;;28.00;48.40;;;;;;5075791;28;20038;-80
2023/09/07 07:31:52;;;;;;;16.90;5.75;;;28.00;48.20;;;;;;5093839;28;20032;-81
2023/09/07 07:34:17;;;;;;;9.25;4.53;;;27.90;48.40;;;;;;5093905;28;20028;-82
2023/09/07 07:36:43;;;;;;;14.75;6.57;;;28.00;48.50;;;;;;5093576;28;20032;-82
2023/09/07 07:39:09;;;;;;;11.15;4.18;;;28.10;48.20;;;;;;5093641;28;20028;-83
2023/09/07 07:41:35;;;;;;;18.65;7.47;;;28.10;48.30;;;;;;5093672;28;20475;-83
2023/09/07 07:44:01;;;;;;;13.18;4.57;;;28.20;48.40;;;;;;5094526;28;20028;-82
2023/09/07 07:46:27;;;;;;;11.63;4.45;;;28.10;48.30;;;;;;5093208;28;20050;-81
2023/09/07 07:48:53;;;;;;;41.42;15.15;;;28.10;48.30;;;;;;5094135;28;20058;-81
2023/09/07 07:51:18;;;;;;;12.90;5.47;;;28.10;48.50;;;;;;5093303;28;20425;-82
2023/09/07 07:53:44;;;;;;;9.73;4.22;;;28.10;48.50;;;;;;5093087;28;20028;-83
2023/09/07 07:56:17;;;;;;;11.88;4.30;;;28.10;48.50;;;;;;5093570;28;20070;-81
2023/09/07 07:58:44;;;;;;;;;;;28.10;48.70;;;;;;5075594;28;20040;-81
2023/09/07 08:01:17;;;;;;;10.43;5.50;;;28.10;48.60;;;;;;5076242;28;19912;-81
2023/09/07 08:03:43;;;;;;;;;;;28.10;47.90;;;;;;5094163;28;20028;-81
2023/09/07 08:06:10;;;;;;;12.68;4.38;;;28.00;48.90;;;;;;5092738;28;19934;-81
2023/09/07 08:08:36;;;;;;;11.43;4.90;;;28.00;48.90;;;;;;5077207;28;20043;-79
2023/09/07 08:11:05;;;;;;;16.98;6.38;;;28.00;48.90;;;;;;5054243;28;20035;-79
2023/09/07 08:13:33;;;;;;;7.97;4.75;;;27.90;49.10;;;;;;5074338;28;20415;-81
2023/09/07 08:16:02;;;;;;;24.45;8.75;;;27.90;49.10;;;;;;5034330;28;20072;-78
2023/09/07 08:18:28;;;;;;;37.13;24.42;;;27.90;48.70;;;;;;5062447;28;20036;-81
2023/09/07 08:20:55;;;;;;;11.23;5.20;;;27.80;49.40;;;;;;5066996;28;20494;-79
2023/09/07 08:23:23;;;;;;;12.32;5.60;;;27.80;49.60;;;;;;5048614;28;20041;-80
2023/09/07 08:25:50;;;;;;;15.13;5.40;;;27.70;49.60;;;;;;5061595;28;20032;-78
2023/09/07 08:28:18;;;;;;;19.35;4.65;;;27.70;49.50;;;;;;5062859;28;20037;-79
2023/09/07 08:30:44;;;;;;;13.00;4.60;;;27.60;49.50;;;;;;5061374;28;20052;-77
2023/09/07 08:33:10;;;;;;;30.20;6.15;;;27.60;49.70;;;;;;5071518;28;20067;-76
2023/09/07 08:35:37;;;;;;;12.32;5.13;;;27.60;49.70;;;;;;5071252;28;20524;-77
2023/09/07 08:38:08;;;;;;;16.27;5.38;;;27.70;49.90;;;;;;5072147;28;20063;-79
2023/09/07 08:40:35;;;;;;;13.13;5.15;;;27.70;49.80;;;;;;5071671;28;20045;-75
2023/09/07 08:43:05;;;;;;;32.50;6.18;;;27.70;49.70;;;;;;5072190;28;20037;-78
2023/09/07 08:45:37;;;;;;;144.15;18.77;;;27.80;50.20;;;;;;5071804;28;20033;-77
2023/09/07 08:48:04;;;;;;;9.15;4.50;;;27.70;49.90;;;;;;5071546;28;20181;-79
2023/09/07 08:50:31;;;;;;;16.15;5.18;;;27.80;49.70;;;;;;5059372;28;20132;-81
2023/09/07 08:52:59;;;;;;;10.48;4.47;;;27.80;49.90;;;;;;5070184;28;20045;-80
2023/09/07 08:55:25;;;;;;;15.85;4.80;;;27.80;49.70;;;;;;5072168;28;20035;-81
2023/09/07 08:57:51;;;;;;;12.10;4.85;;;27.90;49.80;;;;;;5070766;28;20045;-83
2023/09/07 09:00:17;;;;;;;14.20;4.70;;;27.90;49.80;;;;;;5075294;28;20021;-80
2023/09/07 09:02:46;;;;;;;13.55;4.22;;;27.90;49.70;;;;;;5075391;28;20049;-78
2023/09/07 09:05:14;;;;;;;7.43;4.25;;;27.90;50.40;;;;;;5075930;28;20336;-74
2023/09/07 09:07:40;;;;;;;10.07;4.55;;;27.90;49.90;;;;;;5076196;28;20064;-79
2023/09/07 09:10:10;;;;;;;14.32;5.43;;;28.00;49.80;;;;;;5075755;28;20033;-71
2023/09/07 09:12:35;;;;;;;9.65;4.80;;;28.10;50.40;;;;;;5074940;28;20548;-71
2023/09/07 09:15:03;;;;;;;15.15;5.22;;;28.10;49.60;;;;;;5075528;28;20063;-76
2023/09/07 09:17:29;;;;;;;16.48;6.90;;;28.20;49.60;;;;;;5072164;28;20033;-81
2023/09/07 09:19:55;;;;;;;17.67;4.97;;;28.20;49.90;;;;;;5056750;28;20048;-76
2023/09/07 09:22:21;;;;;;;10.45;4.43;;;28.20;49.30;;;;;;5076370;28;20393;-78
2023/09/07 09:24:48;;;;;;;12.35;4.88;;;28.30;49.20;;;;;;5076484;28;20028;-79
2023/09/07 09:27:14;;;;;;;10.20;4.50;;;28.40;49.00;;;;;;5076591;28;20120;-79
2023/09/07 09:29:40;;;;;;;13.90;5.13;;;28.40;48.80;;;;;;5097760;28;20044;-79
2023/09/07 09:32:07;;;;;;;15.07;4.47;;;28.50;48.80;;;;;;5086149;28;20028;-80
2023/09/07 09:34:37;;;;;;;8.57;5.15;;;28.60;48.60;;;;;;5076361;28;20360;-85
2023/09/07 09:37:03;;;;;;;11.25;4.10;;;28.60;48.40;;;;;;5076045;28;20448;-79
2023/09/07 09:39:30;;;;;;;10.02;4.78;;;28.60;48.40;;;;;;5075604;28;20099;-78
2023/09/07 09:41:56;;;;;;;11.38;5.07;;;28.70;48.50;;;;;;5075634;28;20052;-80
2023/09/07 09:44:26;;;;;;;10.98;5.50;;;28.70;47.80;;;;;;5075304;28;20033;-80
2023/09/07 09:46:56;;;;;;;8.60;4.85;;;28.80;47.90;;;;;;5075327;28;20101;-81
2023/09/07 09:49:22;;;;;;;10.15;4.80;;;28.90;47.60;;;;;;5044870;28;20044;-80
2023/09/07 09:51:52;;;;;;;9.23;4.20;;;29.00;47.70;;;;;;5076598;28;20085;-81
2023/09/07 09:54:18;;;;;;;10.35;4.57;;;29.00;47.60;;;;;;5075172;28;20033;-78
2023/09/07 09:56:44;;;;;;;10.27;4.70;;;29.10;47.50;;;;;;5075385;28;20488;-74
2023/09/07 09:59:11;;;;;;;13.10;5.22;;;29.10;47.50;;;;;;5074658;28;20044;-73
2023/09/07 10:01:41;;;;;;;10.38;5.65;;;29.20;47.40;;;;;;5073627;28;20045;-73
2023/09/07 10:04:09;;;;;;;10.30;4.93;;;29.20;47.40;;;;;;5072483;28;20047;-73
2023/09/07 10:06:35;;;;;;;11.32;5.22;;;29.30;47.30;;;;;;5074567;28;20051;-74
2023/09/07 10:09:06;;;;;;;13.27;5.35;;;29.30;46.90;;;;;;5074246;28;20033;-77
2023/09/07 10:11:33;;;;;;;11.18;4.93;;;29.40;47.00;;;;;;5039083;28;20107;-73
2023/09/07 10:14:03;;;;;;;14.32;5.07;;;29.50;46.70;;;;;;5062001;28;20119;-73
2023/09/07 10:16:40;;;;;;;9.27;4.97;;;29.60;46.90;;;;;;5061527;28;20392;-85
2023/09/07 10:19:18;;;;;;;9.18;4.55;;;29.70;46.50;;;;;;5071650;28;20051;-84
2023/09/07 10:21:43;;;;;;;14.93;4.97;;;29.80;46.30;;;;;;5061366;28;20049;-79
2023/09/07 10:24:09;;;;;;;13.07;5.40;;;29.90;46.20;;;;;;5075130;28;20031;-85
2023/09/07 10:26:36;;;;;;;16.10;5.65;;;29.90;45.60;;;;;;5076036;28;20100;-83
2023/09/07 10:29:03;;;;;;;8.35;4.22;;;30.00;45.60;;;;;;5075990;28;20033;-84
2023/09/07 10:31:33;;;;;;;11.32;4.60;;;30.10;45.10;;;;;;5075573;28;20104;-82
2023/09/07 10:34:10;;;;;;;7.57;4.40;;;30.20;44.60;;;;;;5074959;28;20028;-84
2023/09/07 10:36:37;;;;;;;7.05;4.80;;;30.30;44.60;;;;;;5075121;28;20028;-83
2023/09/07 10:39:05;;;;;;;8.85;4.63;;;30.30;44.40;;;;;;5075490;28;20059;-84
2023/09/07 10:41:42;;;;;;;8.68;4.80;;;30.40;44.40;;;;;;5075371;28;20040;-83
2023/09/07 10:44:07;;;;;;;7.13;4.35;;;30.40;44.40;;;;;;5075452;28;20362;-83
2023/09/07 10:46:33;;;;;;;6.55;4.40;;;30.50;44.00;;;;;;5075304;28;20048;-84
2023/09/07 10:48:59;;;;;;;8.10;4.40;;;30.50;43.70;;;;;;5057726;28;20195;-80
2023/09/07 10:51:25;;;;;;;7.28;4.45;;;30.50;43.90;;;;;;5077073;28;20033;-83
2023/09/07 10:53:50;;;;;;;6.13;3.95;;;30.60;43.60;;;;;;5057531;28;20086;-83
2023/09/07 10:56:16;;;;;;;11.15;4.20;;;30.70;43.30;;;;;;5057203;28;20119;-83
2023/09/07 10:58:43;;;;;;;10.20;4.43;;;30.70;43.00;;;;;;5075541;28;20029;-83
2023/09/07 11:01:10;;;;;;;7.57;3.97;;;30.80;42.90;;;;;;5075672;28;20028;-84
2023/09/07 11:03:37;;;;;;;7.97;4.50;;;30.90;42.70;;;;;;5075211;28;20040;-84
2023/09/07 11:06:20;;;;;;;7.20;4.05;;;31.00;42.40;;;;;;5075571;28;20154;-83
2023/09/07 11:08:48;;;;;;;8.77;4.05;;;31.00;41.40;;;;;;5074947;28;20032;-83
2023/09/07 11:11:14;;;;;;;6.20;4.30;;;31.10;42.00;;;;;;5074374;28;20112;-84
2023/09/07 11:13:40;;;;;;;8.25;4.30;;;31.10;41.70;;;;;;5074484;28;20032;-83
2023/09/07 11:16:09;;;;;;;14.13;4.85;;;31.10;41.70;;;;;;5074325;28;20039;-84
2023/09/07 11:18:36;;;;;;;5.40;3.53;;;31.20;41.70;;;;;;5057191;28;20040;-82
2023/09/07 11:21:07;;;;;;;6.20;4.55;;;31.20;41.00;;;;;;5074430;28;20029;-83
2023/09/07 11:23:38;;;;;;;7.90;4.35;;;31.30;41.20;;;;;;5076557;28;20043;-84
2023/09/07 11:26:10;;;;;;;6.38;4.00;;;31.40;41.00;;;;;;5075604;28;20492;-81
2023/09/07 11:28:37;;;;;;;8.80;4.07;;;31.50;40.60;;;;;;5078178;28;20044;-84
2023/09/07 11:31:03;;;;;;;7.85;4.00;;;31.50;40.40;;;;;;5095753;28;20109;-83
2023/09/07 11:33:32;;;;;;;5.78;4.03;;;31.60;40.60;;;;;;5091550;28;20048;-83
2023/09/07 11:35:58;;;;;;;8.75;4.15;;;31.60;40.50;;;;;;5074587;28;20028;-82
2023/09/07 11:38:29;;;;;;;8.70;4.20;;;31.70;40.00;;;;;;5074356;28;20381;-83
2023/09/07 11:40:56;;;;;;;7.00;4.00;;;31.80;39.90;;;;;;5074426;28;20337;-81
2023/09/07 11:43:22;;;;;;;5.88;3.85;;;31.80;39.70;;;;;;5074142;28;20037;-83
2023/09/07 11:45:49;;;;;;;5.78;4.15;;;31.90;39.50;;;;;;5074633;28;20610;-85
2023/09/07 11:48:15;;;;;;;8.32;3.95;;;31.90;39.40;;;;;;5073936;28;20071;-84
2023/09/07 11:50:40;;;;;;;10.50;3.75;;;31.90;39.20;;;;;;5055767;28;20032;-84
2023/09/07 11:53:07;;;;;;;6.15;3.50;;;31.90;39.30;;;;;;5073774;28;20525;-83
2023/09/07 11:55:33;;;;;;;7.22;4.25;;;31.90;38.80;;;;;;5073880;28;20360;-83
2023/09/07 11:58:00;;;;;;;6.28;4.05;;;32.00;39.20;;;;;;5073930;28;20036;-84
2023/09/07 12:00:26;;;;;;;7.47;4.00;;;32.00;39.10;;;;;;5073756;28;20036;-83
2023/09/07 12:02:52;;;;;;;7.45;3.90;;;32.10;39.20;;;;;;5075779;28;20492;-85
2023/09/07 12:05:19;;;;;;;11.02;4.38;;;32.10;38.90;;;;;;5076657;28;20029;-84
2023/09/07 12:07:45;;;;;;;9.10;4.05;;;32.20;38.10;;;;;;5079616;28;20036;-83
2023/09/07 12:10:11;;;;;;;5.95;3.65;;;32.30;38.10;;;;;;5079410;28;20025;-83
2023/09/07 12:12:37;;;;;;;5.00;3.70;;;32.40;37.70;;;;;;5080142;28;20032;-84
2023/09/07 12:15:04;;;;;;;6.88;3.70;;;32.40;37.70;;;;;;5079325;28;20506;-83
2023/09/07 12:17:33;;;;;;;6.22;3.78;;;32.40;37.70;;;;;;5076145;28;20024;-83
2023/09/07 12:20:00;;;;;;;5.20;3.83;;;32.40;37.50;;;;;;5074961;28;20098;-83
2023/09/07 12:22:26;;;;;;;7.38;4.05;;;32.50;37.60;;;;;;5074268;28;20054;-84
2023/09/07 12:24:52;;;;;;;7.63;3.88;;;32.40;37.70;;;;;;5073535;28;20033;-83
2023/09/07 12:27:18;;;;;;;7.80;4.00;;;32.40;37.30;;;;;;5055825;28;20558;-85
2023/09/07 12:29:44;;;;;;;5.78;3.50;;;32.40;37.50;;;;;;5073900;28;20056;-83
2023/09/07 12:32:10;;;;;;;6.38;3.40;;;32.50;37.10;;;;;;5073758;28;20035;-82
2023/09/07 12:34:36;;;;;;;6.85;3.33;;;32.50;37.00;;;;;;5072732;28;20029;-82
2023/09/07 12:37:04;;;;;;;8.82;4.00;;;32.50;37.10;;;;;;5073346;28;20040;-83
2023/09/07 12:39:30;;;;;;;6.80;3.70;;;32.50;37.10;;;;;;5072836;28;20107;-82